sensor_id;sensor_type;location;lat;lon;timestamp;pressure;altitude;pressure_sealevel;temperature;humidity
45050;BME280;61798;48.048;-1.928;2022-09-06T00:00:24;100625.59;;;16.33;88.91
45050;BME280;61798;48.048;-1.928;2022-09-06T00:02:32;100574.91;;;16.28;87.28
45050;BME280;61798;48.048;-1.928;2022-09-06T00:04:40;100609.03;;;16.42;86.61
45050;BME280;61798;48.048;-1.928;2022-09-06T00:06:47;100617.03;;;16.48;86.83
45050;BME280;61798;48.048;-1.928;2022-09-06T00:08:54;100624.53;;;16.34;88.10
45050;BME280;61798;48.048;-1.928;2022-09-06T00:11:00;100615.41;;;16.47;86.09
45050;BME280;61798;48.048;-1.928;2022-09-06T00:13:08;100635.25;;;16.53;87.10
45050;BME280;61798;48.048;-1.928;2022-09-06T00:15:17;100627.09;;;16.29;87.73
45050;BME280;61798;48.048;-1.928;2022-09-06T00:17:24;100626.53;;;16.27;87.65
45050;BME280;61798;48.048;-1.928;2022-09-06T00:19:31;100632.63;;;16.22;88.61
45050;BME280;61798;48.048;-1.928;2022-09-06T00:21:39;100617.13;;;16.30;87.26
45050;BME280;61798;48.048;-1.928;2022-09-06T00:23:49;100627.22;;;16.22;88.46
45050;BME280;61798;48.048;-1.928;2022-09-06T00:26:03;100620.25;;;16.14;88.76
45050;BME280;61798;48.048;-1.928;2022-09-06T00:28:09;100609.75;;;16.06;89.21
45050;BME280;61798;48.048;-1.928;2022-09-06T00:30:17;100626.41;;;16.34;87.52
45050;BME280;61798;48.048;-1.928;2022-09-06T00:32:24;100587.84;;;16.26;86.63
45050;BME280;61798;48.048;-1.928;2022-09-06T00:34:31;100610.91;;;16.53;87.05
45050;BME280;61798;48.048;-1.928;2022-09-06T00:36:38;100578.31;;;16.12;87.56
45050;BME280;61798;48.048;-1.928;2022-09-06T00:38:46;100586.19;;;16.25;87.65
45050;BME280;61798;48.048;-1.928;2022-09-06T00:40:53;100592.09;;;16.34;86.70
45050;BME280;61798;48.048;-1.928;2022-09-06T00:43:00;100601.94;;;16.28;88.14
45050;BME280;61798;48.048;-1.928;2022-09-06T00:45:09;100593.25;;;16.26;87.13
45050;BME280;61798;48.048;-1.928;2022-09-06T00:47:16;100597.06;;;16.06;88.61
45050;BME280;61798;48.048;-1.928;2022-09-06T00:49:30;100614.31;;;16.05;89.46
45050;BME280;61798;48.048;-1.928;2022-09-06T00:51:39;100609.59;;;16.01;89.71
45050;BME280;61798;48.048;-1.928;2022-09-06T00:53:46;100604.19;;;16.01;89.95
45050;BME280;61798;48.048;-1.928;2022-09-06T00:55:56;100605.81;;;16.21;87.88
45050;BME280;61798;48.048;-1.928;2022-09-06T00:58:03;100607.38;;;16.41;87.49
45050;BME280;61798;48.048;-1.928;2022-09-06T01:00:11;100604.19;;;16.20;87.82
45050;BME280;61798;48.048;-1.928;2022-09-06T01:02:19;100607.31;;;16.16;88.40
45050;BME280;61798;48.048;-1.928;2022-09-06T01:04:28;100573.03;;;15.86;88.71
45050;BME280;61798;48.048;-1.928;2022-09-06T01:09:31;100617.84;;;16.06;88.23
45050;BME280;61798;48.048;-1.928;2022-09-06T01:16:59;100607.00;;;15.94;88.10
45050;BME280;61798;48.048;-1.928;2022-09-06T01:22:05;100619.31;;;15.90;88.26
45050;BME280;61798;48.048;-1.928;2022-09-06T01:24:42;100616.09;;;16.00;88.56
45050;BME280;61798;48.048;-1.928;2022-09-06T01:29:46;100623.50;;;16.35;85.67
45050;BME280;61798;48.048;-1.928;2022-09-06T01:32:07;100624.00;;;16.13;86.72
45050;BME280;61798;48.048;-1.928;2022-09-06T01:34:27;100611.38;;;15.95;87.92
45050;BME280;61798;48.048;-1.928;2022-09-06T01:37:07;100609.50;;;15.95;88.21
45050;BME280;61798;48.048;-1.928;2022-09-06T01:39:35;100618.81;;;15.81;88.21
45050;BME280;61798;48.048;-1.928;2022-09-06T01:41:42;100604.00;;;15.71;88.53
45050;BME280;61798;48.048;-1.928;2022-09-06T01:43:50;100598.72;;;15.77;88.41
45050;BME280;61798;48.048;-1.928;2022-09-06T01:46:26;100594.50;;;15.81;88.56
45050;BME280;61798;48.048;-1.928;2022-09-06T01:49:32;100583.69;;;15.81;88.53
45050;BME280;61798;48.048;-1.928;2022-09-06T02:04:55;100593.97;;;15.91;87.70
45050;BME280;61798;48.048;-1.928;2022-09-06T02:07:17;100591.97;;;15.98;87.49
45050;BME280;61798;48.048;-1.928;2022-09-06T02:09:30;100592.44;;;15.95;87.83
45050;BME280;61798;48.048;-1.928;2022-09-06T02:12:01;100601.72;;;15.87;87.48
45050;BME280;61798;48.048;-1.928;2022-09-06T02:14:14;100596.88;;;15.89;88.08
45050;BME280;61798;48.048;-1.928;2022-09-06T02:16:25;100586.31;;;15.88;87.25
45050;BME280;61798;48.048;-1.928;2022-09-06T02:18:43;100592.56;;;15.88;87.75
45050;BME280;61798;48.048;-1.928;2022-09-06T02:20:56;100599.31;;;16.10;86.67
45050;BME280;61798;48.048;-1.928;2022-09-06T02:23:05;100594.53;;;15.93;87.86
45050;BME280;61798;48.048;-1.928;2022-09-06T02:25:20;100598.19;;;15.86;87.37
45050;BME280;61798;48.048;-1.928;2022-09-06T02:27:31;100602.56;;;16.00;87.06
45050;BME280;61798;48.048;-1.928;2022-09-06T02:29:39;100588.88;;;15.82;87.55
45050;BME280;61798;48.048;-1.928;2022-09-06T02:31:54;100597.19;;;15.81;88.70
45050;BME280;61798;48.048;-1.928;2022-09-06T02:34:03;100601.56;;;15.82;88.24
45050;BME280;61798;48.048;-1.928;2022-09-06T02:36:10;100604.09;;;15.95;87.51
45050;BME280;61798;48.048;-1.928;2022-09-06T02:38:21;100604.88;;;15.84;88.16
45050;BME280;61798;48.048;-1.928;2022-09-06T02:40:29;100604.66;;;15.98;86.86
45050;BME280;61798;48.048;-1.928;2022-09-06T02:42:37;100606.69;;;16.02;87.50
45050;BME280;61798;48.048;-1.928;2022-09-06T02:44:45;100604.94;;;15.77;89.21
45050;BME280;61798;48.048;-1.928;2022-09-06T02:46:52;100601.31;;;15.71;89.08
45050;BME280;61798;48.048;-1.928;2022-09-06T02:48:59;100594.09;;;15.65;88.35
45050;BME280;61798;48.048;-1.928;2022-09-06T02:51:08;100600.31;;;15.96;87.77
45050;BME280;61798;48.048;-1.928;2022-09-06T02:53:15;100584.47;;;15.69;88.99
45050;BME280;61798;48.048;-1.928;2022-09-06T02:55:22;100594.50;;;15.81;88.79
45050;BME280;61798;48.048;-1.928;2022-09-06T02:57:28;100596.00;;;15.77;88.82
45050;BME280;61798;48.048;-1.928;2022-09-06T02:59:35;100599.94;;;15.93;88.12
45050;BME280;61798;48.048;-1.928;2022-09-06T03:01:43;100592.50;;;15.76;88.45
45050;BME280;61798;48.048;-1.928;2022-09-06T03:03:50;100589.88;;;15.69;89.62
45050;BME280;61798;48.048;-1.928;2022-09-06T03:05:58;100584.47;;;15.69;89.67
45050;BME280;61798;48.048;-1.928;2022-09-06T03:08:05;100597.31;;;15.74;89.28
45050;BME280;61798;48.048;-1.928;2022-09-06T03:10:13;100605.66;;;15.72;89.61
45050;BME280;61798;48.048;-1.928;2022-09-06T03:12:19;100606.97;;;15.82;89.22
45050;BME280;61798;48.048;-1.928;2022-09-06T03:14:25;100600.63;;;15.76;90.81
45050;BME280;61798;48.048;-1.928;2022-09-06T03:16:32;100597.50;;;15.91;89.75
45050;BME280;61798;48.048;-1.928;2022-09-06T03:18:39;100600.41;;;15.90;89.87
45050;BME280;61798;48.048;-1.928;2022-09-06T03:20:49;100596.88;;;15.89;90.42
45050;BME280;61798;48.048;-1.928;2022-09-06T03:22:57;100592.44;;;15.95;89.44
45050;BME280;61798;48.048;-1.928;2022-09-06T03:25:05;100601.41;;;16.07;89.10
45050;BME280;61798;48.048;-1.928;2022-09-06T03:27:13;100600.78;;;15.93;89.96
45050;BME280;61798;48.048;-1.928;2022-09-06T03:29:20;100567.94;;;15.78;89.44
45050;BME280;61798;48.048;-1.928;2022-09-06T03:31:26;100595.13;;;15.83;90.86
45050;BME280;61798;48.048;-1.928;2022-09-06T03:33:33;100597.81;;;15.83;90.24
45050;BME280;61798;48.048;-1.928;2022-09-06T03:35:47;100591.22;;;15.79;90.73
45050;BME280;61798;48.048;-1.928;2022-09-06T03:37:55;100597.91;;;15.76;91.00
45050;BME280;61798;48.048;-1.928;2022-09-06T03:40:03;100602.59;;;15.81;91.20
45050;BME280;61798;48.048;-1.928;2022-09-06T03:42:10;100578.66;;;15.72;91.31
45050;BME280;61798;48.048;-1.928;2022-09-06T03:44:18;100596.88;;;15.89;89.81
45050;BME280;61798;48.048;-1.928;2022-09-06T03:46:24;100591.63;;;15.94;90.27
45050;BME280;61798;48.048;-1.928;2022-09-06T03:48:31;100566.19;;;15.71;90.82
45050;BME280;61798;48.048;-1.928;2022-09-06T03:50:37;100564.47;;;15.89;89.73
45050;BME280;61798;48.048;-1.928;2022-09-06T03:52:43;100592.22;;;16.09;89.39
45050;BME280;61798;48.048;-1.928;2022-09-06T03:54:50;100586.34;;;16.00;90.01
45050;BME280;61798;48.048;-1.928;2022-09-06T03:56:57;100599.25;;;15.98;90.52
45050;BME280;61798;48.048;-1.928;2022-09-06T03:59:04;100601.84;;;16.04;89.92
45050;BME280;61798;48.048;-1.928;2022-09-06T04:01:12;100588.78;;;15.89;90.30
45050;BME280;61798;48.048;-1.928;2022-09-06T04:03:19;100592.34;;;16.02;90.08
45050;BME280;61798;48.048;-1.928;2022-09-06T04:05:26;100541.56;;;15.61;91.02
45050;BME280;61798;48.048;-1.928;2022-09-06T04:07:33;100588.34;;;15.92;90.81
45050;BME280;61798;48.048;-1.928;2022-09-06T04:09:41;100564.72;;;15.88;90.82
45050;BME280;61798;48.048;-1.928;2022-09-06T04:11:48;100573.75;;;15.93;90.92
45050;BME280;61798;48.048;-1.928;2022-09-06T04:13:55;100578.59;;;16.03;90.14
45050;BME280;61798;48.048;-1.928;2022-09-06T04:16:04;100590.56;;;15.95;91.51
45050;BME280;61798;48.048;-1.928;2022-09-06T04:18:11;100587.91;;;16.07;89.75
45050;BME280;61798;48.048;-1.928;2022-09-06T04:20:18;100573.41;;;16.02;91.17
45050;BME280;61798;48.048;-1.928;2022-09-06T04:22:24;100574.31;;;16.14;89.71
45050;BME280;61798;48.048;-1.928;2022-09-06T04:24:31;100541.91;;;15.83;90.77
45050;BME280;61798;48.048;-1.928;2022-09-06T04:26:39;100548.25;;;15.89;90.58
45050;BME280;61798;48.048;-1.928;2022-09-06T04:28:46;100582.06;;;16.11;89.71
45050;BME280;61798;48.048;-1.928;2022-09-06T04:30:57;100588.56;;;16.34;88.97
45050;BME280;61798;48.048;-1.928;2022-09-06T04:33:03;100579.25;;;16.17;88.71
45050;BME280;61798;48.048;-1.928;2022-09-06T04:35:11;100587.13;;;16.19;90.01
45050;BME280;61798;48.048;-1.928;2022-09-06T04:37:19;100574.38;;;16.07;91.00
45050;BME280;61798;48.048;-1.928;2022-09-06T04:39:27;100559.00;;;16.08;90.63
45050;BME280;61798;48.048;-1.928;2022-09-06T04:41:34;100576.44;;;16.12;90.98
45050;BME280;61798;48.048;-1.928;2022-09-06T04:43:41;100568.38;;;16.05;90.78
45050;BME280;61798;48.048;-1.928;2022-09-06T04:45:49;100570.66;;;16.21;90.14
45050;BME280;61798;48.048;-1.928;2022-09-06T04:47:55;100563.16;;;16.23;90.01
45050;BME280;61798;48.048;-1.928;2022-09-06T04:50:03;100553.50;;;16.15;90.45
45050;BME280;61798;48.048;-1.928;2022-09-06T04:52:10;100545.16;;;16.28;89.51
45050;BME280;61798;48.048;-1.928;2022-09-06T04:54:17;100544.56;;;16.14;89.93
45050;BME280;61798;48.048;-1.928;2022-09-06T04:56:25;100559.06;;;16.20;90.70
45050;BME280;61798;48.048;-1.928;2022-09-06T04:58:32;100545.25;;;16.10;90.19
45050;BME280;61798;48.048;-1.928;2022-09-06T05:00:38;100547.28;;;16.26;89.18
45050;BME280;61798;48.048;-1.928;2022-09-06T05:02:47;100547.41;;;16.32;88.51
45050;BME280;61798;48.048;-1.928;2022-09-06T05:04:54;100558.94;;;16.27;90.01
45050;BME280;61798;48.048;-1.928;2022-09-06T05:07:05;100561.75;;;16.20;91.00
45050;BME280;61798;48.048;-1.928;2022-09-06T05:09:11;100550.69;;;16.22;91.30
45050;BME280;61798;48.048;-1.928;2022-09-06T05:11:18;100533.97;;;16.13;89.75
45050;BME280;61798;48.048;-1.928;2022-09-06T05:13:25;100534.81;;;16.25;89.52
45050;BME280;61798;48.048;-1.928;2022-09-06T05:15:33;100545.28;;;16.22;90.68
45050;BME280;61798;48.048;-1.928;2022-09-06T05:17:40;100531.66;;;16.28;89.69
45050;BME280;61798;48.048;-1.928;2022-09-06T05:19:47;100520.47;;;16.25;88.93
45050;BME280;61798;48.048;-1.928;2022-09-06T05:21:55;100529.75;;;16.29;90.29
45050;BME280;61798;48.048;-1.928;2022-09-06T05:24:02;100541.19;;;16.31;89.59
45050;BME280;61798;48.048;-1.928;2022-09-06T05:26:10;100544.00;;;16.36;89.45
45050;BME280;61798;48.048;-1.928;2022-09-06T05:28:17;100540.84;;;16.40;88.69
45050;BME280;61798;48.048;-1.928;2022-09-06T05:30:25;100528.13;;;16.28;89.04
45050;BME280;61798;48.048;-1.928;2022-09-06T05:32:32;100535.66;;;16.26;89.89
45050;BME280;61798;48.048;-1.928;2022-09-06T05:34:41;100528.59;;;16.25;89.33
45050;BME280;61798;48.048;-1.928;2022-09-06T05:36:48;100534.22;;;16.11;91.07
45050;BME280;61798;48.048;-1.928;2022-09-06T05:38:56;100545.16;;;16.16;91.16
45050;BME280;61798;48.048;-1.928;2022-09-06T05:41:02;100512.91;;;16.03;90.12
45050;BME280;61798;48.048;-1.928;2022-09-06T05:43:08;100527.19;;;16.22;88.89
45050;BME280;61798;48.048;-1.928;2022-09-06T05:45:15;100541.06;;;16.38;89.22
45050;BME280;61798;48.048;-1.928;2022-09-06T05:47:23;100551.06;;;16.37;89.43
45050;BME280;61798;48.048;-1.928;2022-09-06T05:49:30;100561.06;;;16.49;89.95
45050;BME280;61798;48.048;-1.928;2022-09-06T05:51:39;100566.34;;;16.44;91.35
45050;BME280;61798;48.048;-1.928;2022-09-06T05:53:46;100553.75;;;16.37;89.83
45050;BME280;61798;48.048;-1.928;2022-09-06T05:55:53;100552.94;;;16.49;88.79
45050;BME280;61798;48.048;-1.928;2022-09-06T05:58:00;100545.91;;;16.60;87.83
45050;BME280;61798;48.048;-1.928;2022-09-06T06:00:08;100567.97;;;16.45;90.82
45050;BME280;61798;48.048;-1.928;2022-09-06T06:02:21;100557.28;;;16.38;91.64
45050;BME280;61798;48.048;-1.928;2022-09-06T06:04:28;100561.16;;;16.30;91.38
45050;BME280;61798;48.048;-1.928;2022-09-06T06:06:36;100561.06;;;16.49;88.56
45050;BME280;61798;48.048;-1.928;2022-09-06T06:08:43;100574.34;;;16.63;88.91
45050;BME280;61798;48.048;-1.928;2022-09-06T06:10:50;100561.31;;;16.59;88.75
45050;BME280;61798;48.048;-1.928;2022-09-06T06:12:57;100565.28;;;16.45;90.34
45050;BME280;61798;48.048;-1.928;2022-09-06T06:15:05;100574.56;;;16.49;90.16
45050;BME280;61798;48.048;-1.928;2022-09-06T06:17:12;100573.75;;;16.48;90.69
45050;BME280;61798;48.048;-1.928;2022-09-06T06:19:19;100553.19;;;16.47;90.48
45050;BME280;61798;48.048;-1.928;2022-09-06T06:21:29;100568.13;;;16.50;91.19
45050;BME280;61798;48.048;-1.928;2022-09-06T06:23:37;100572.34;;;16.46;91.68
45050;BME280;61798;48.048;-1.928;2022-09-06T06:25:44;100537.41;;;16.44;88.86
45050;BME280;61798;48.048;-1.928;2022-09-06T06:27:50;100545.28;;;16.58;88.66
45050;BME280;61798;48.048;-1.928;2022-09-06T06:29:56;100527.41;;;16.57;89.12
45050;BME280;61798;48.048;-1.928;2022-09-06T06:32:02;100546.81;;;16.54;90.13
45050;BME280;61798;48.048;-1.928;2022-09-06T06:34:08;100540.00;;;16.51;90.47
45050;BME280;61798;48.048;-1.928;2022-09-06T06:38:19;100491.56;;;16.37;90.15
45050;BME280;61798;48.048;-1.928;2022-09-06T06:40:25;100542.72;;;16.75;89.36
45050;BME280;61798;48.048;-1.928;2022-09-06T06:42:32;100529.06;;;16.70;89.76
45050;BME280;61798;48.048;-1.928;2022-09-06T06:44:38;100522.09;;;16.74;88.54
45050;BME280;61798;48.048;-1.928;2022-09-06T06:46:44;100528.91;;;16.77;89.33
45050;BME280;61798;48.048;-1.928;2022-09-06T06:48:50;100541.06;;;16.74;89.63
45050;BME280;61798;48.048;-1.928;2022-09-06T06:50:56;100534.44;;;16.82;89.21
45050;BME280;61798;48.048;-1.928;2022-09-06T06:53:02;100498.13;;;16.66;89.65
45050;BME280;61798;48.048;-1.928;2022-09-06T06:55:08;100511.41;;;16.79;89.12
45050;BME280;61798;48.048;-1.928;2022-09-06T06:57:14;100526.44;;;16.87;88.67
45050;BME280;61798;48.048;-1.928;2022-09-06T06:59:20;100535.00;;;16.96;88.52
45050;BME280;61798;48.048;-1.928;2022-09-06T07:01:27;100547.47;;;16.97;87.83
45050;BME280;61798;48.048;-1.928;2022-09-06T07:03:34;100542.75;;;17.05;87.68
45050;BME280;61798;48.048;-1.928;2022-09-06T07:05:41;100530.72;;;17.12;87.30
45050;BME280;61798;48.048;-1.928;2022-09-06T07:07:51;100525.91;;;17.27;87.33
45050;BME280;61798;48.048;-1.928;2022-09-06T07:09:57;100505.53;;;17.12;86.47
45050;BME280;61798;48.048;-1.928;2022-09-06T07:12:03;100509.81;;;17.08;86.58
45050;BME280;61798;48.048;-1.928;2022-09-06T07:14:09;100536.47;;;17.28;86.63
45050;BME280;61798;48.048;-1.928;2022-09-06T07:16:22;100529.84;;;17.36;86.42
45050;BME280;61798;48.048;-1.928;2022-09-06T07:18:28;100497.88;;;17.21;87.02
45050;BME280;61798;48.048;-1.928;2022-09-06T07:20:34;100524.59;;;17.29;86.27
45050;BME280;61798;48.048;-1.928;2022-09-06T07:22:41;100538.31;;;17.40;86.79
45050;BME280;61798;48.048;-1.928;2022-09-06T07:24:47;100496.47;;;17.18;85.83
45050;BME280;61798;48.048;-1.928;2022-09-06T07:26:52;100538.53;;;17.50;85.31
45050;BME280;61798;48.048;-1.928;2022-09-06T07:29:00;100527.84;;;17.43;84.98
45050;BME280;61798;48.048;-1.928;2022-09-06T07:31:06;100533.31;;;17.31;85.01
45050;BME280;61798;48.048;-1.928;2022-09-06T07:33:12;100551.63;;;17.41;84.84
45050;BME280;61798;48.048;-1.928;2022-09-06T07:35:18;100556.69;;;17.38;85.88
45050;BME280;61798;48.048;-1.928;2022-09-06T07:37:25;100524.25;;;17.26;84.83
45050;BME280;61798;48.048;-1.928;2022-09-06T07:39:30;100532.84;;;17.22;85.02
45050;BME280;61798;48.048;-1.928;2022-09-06T07:41:41;100540.84;;;17.17;84.34
45050;BME280;61798;48.048;-1.928;2022-09-06T07:43:51;100548.25;;;17.34;83.87
45050;BME280;61798;48.048;-1.928;2022-09-06T07:46:03;100545.88;;;17.38;84.33
45050;BME280;61798;48.048;-1.928;2022-09-06T07:48:10;100535.41;;;17.29;84.13
45050;BME280;61798;48.048;-1.928;2022-09-06T07:50:16;100512.88;;;16.99;85.71
45050;BME280;61798;48.048;-1.928;2022-09-06T07:52:25;100550.28;;;17.27;84.69
45050;BME280;61798;48.048;-1.928;2022-09-06T07:54:31;100540.38;;;17.20;84.13
45050;BME280;61798;48.048;-1.928;2022-09-06T07:56:37;100579.69;;;17.35;84.21
45050;BME280;61798;48.048;-1.928;2022-09-06T07:58:43;100542.78;;;16.92;83.60
45050;BME280;61798;48.048;-1.928;2022-09-06T08:00:49;100581.97;;;16.90;84.59
45050;BME280;61798;48.048;-1.928;2022-09-06T08:02:54;100575.41;;;16.62;85.70
45050;BME280;61798;48.048;-1.928;2022-09-06T08:05:00;100586.34;;;16.43;86.78
45050;BME280;61798;48.048;-1.928;2022-09-06T08:07:06;100595.13;;;16.26;87.01
45050;BME280;61798;48.048;-1.928;2022-09-06T08:09:13;100562.69;;;15.83;87.53
45050;BME280;61798;48.048;-1.928;2022-09-06T08:11:21;100593.59;;;16.18;87.46
45050;BME280;61798;48.048;-1.928;2022-09-06T08:13:27;100553.72;;;15.70;89.25
45050;BME280;61798;48.048;-1.928;2022-09-06T08:15:33;100567.78;;;16.03;88.94
45050;BME280;61798;48.048;-1.928;2022-09-06T08:17:39;100566.72;;;16.04;88.44
45050;BME280;61798;48.048;-1.928;2022-09-06T08:19:45;100607.16;;;16.42;87.16
45050;BME280;61798;48.048;-1.928;2022-09-06T08:21:53;100562.69;;;15.83;88.79
45050;BME280;61798;48.048;-1.928;2022-09-06T08:24:01;100569.31;;;15.99;90.00
45050;BME280;61798;48.048;-1.928;2022-09-06T08:26:08;100567.59;;;16.17;89.67
45050;BME280;61798;48.048;-1.928;2022-09-06T08:28:14;100567.53;;;16.05;91.86
45050;BME280;61798;48.048;-1.928;2022-09-06T08:30:20;100549.97;;;16.14;92.41
45050;BME280;61798;48.048;-1.928;2022-09-06T08:32:26;100531.56;;;16.35;89.57
45050;BME280;61798;48.048;-1.928;2022-09-06T08:34:32;100529.06;;;16.34;90.31
45050;BME280;61798;48.048;-1.928;2022-09-06T08:36:38;100530.06;;;16.09;91.79
45050;BME280;61798;48.048;-1.928;2022-09-06T08:38:43;100556.59;;;16.43;91.71
45050;BME280;61798;48.048;-1.928;2022-09-06T08:40:51;100563.75;;;16.73;92.61
45050;BME280;61798;48.048;-1.928;2022-09-06T08:42:58;100536.59;;;16.56;92.12
45050;BME280;61798;48.048;-1.928;2022-09-06T08:45:05;100553.22;;;17.01;92.72
45050;BME280;61798;48.048;-1.928;2022-09-06T08:47:17;100565.56;;;17.09;92.00
45050;BME280;61798;48.048;-1.928;2022-09-06T08:49:29;100565.59;;;17.21;89.18
45050;BME280;61798;48.048;-1.928;2022-09-06T08:51:54;100574.72;;;17.32;92.28
45050;BME280;61798;48.048;-1.928;2022-09-06T08:54:23;100567.00;;;17.23;93.20
45050;BME280;61798;48.048;-1.928;2022-09-06T08:59:12;100565.63;;;17.50;91.82
45050;BME280;61798;48.048;-1.928;2022-09-06T09:01:22;100550.19;;;17.51;90.73
45050;BME280;61798;48.048;-1.928;2022-09-06T09:03:33;100566.13;;;17.64;91.69
45050;BME280;61798;48.048;-1.928;2022-09-06T09:05:41;100563.53;;;17.70;89.29
45050;BME280;61798;48.048;-1.928;2022-09-06T09:07:56;100560.59;;;17.89;90.08
45050;BME280;61798;48.048;-1.928;2022-09-06T09:10:11;100565.41;;;17.69;89.35
45050;BME280;61798;48.048;-1.928;2022-09-06T09:12:22;100554.34;;;17.71;90.11
45050;BME280;61798;48.048;-1.928;2022-09-06T09:14:30;100568.38;;;17.85;90.97
45050;BME280;61798;48.048;-1.928;2022-09-06T09:16:40;100571.31;;;17.66;89.98
45050;BME280;61798;48.048;-1.928;2022-09-06T09:18:59;100574.31;;;17.82;89.90
45050;BME280;61798;48.048;-1.928;2022-09-06T09:21:06;100561.41;;;17.89;91.18
45050;BME280;61798;48.048;-1.928;2022-09-06T09:23:12;100547.53;;;17.85;90.82
45050;BME280;61798;48.048;-1.928;2022-09-06T09:25:21;100571.19;;;18.07;90.30
45050;BME280;61798;48.048;-1.928;2022-09-06T09:27:28;100567.88;;;18.35;90.70
45050;BME280;61798;48.048;-1.928;2022-09-06T09:32:00;100566.22;;;17.99;90.84
45050;BME280;61798;48.048;-1.928;2022-09-06T09:34:11;100553.19;;;17.84;91.14
45050;BME280;61798;48.048;-1.928;2022-09-06T09:36:20;100569.97;;;17.98;91.35
45050;BME280;61798;48.048;-1.928;2022-09-06T09:38:31;100563.06;;;17.90;91.58
45050;BME280;61798;48.048;-1.928;2022-09-06T09:42:46;100571.66;;;17.70;90.69
45050;BME280;61798;48.048;-1.928;2022-09-06T09:44:52;100566.63;;;17.61;91.23
45050;BME280;61798;48.048;-1.928;2022-09-06T09:46:58;100571.94;;;17.56;91.70
45050;BME280;61798;48.048;-1.928;2022-09-06T09:49:10;100580.75;;;17.63;91.62
45050;BME280;61798;48.048;-1.928;2022-09-06T09:51:23;100581.09;;;17.67;90.86
45050;BME280;61798;48.048;-1.928;2022-09-06T09:53:29;100575.03;;;17.77;89.71
45050;BME280;61798;48.048;-1.928;2022-09-06T09:55:35;100567.09;;;17.58;92.42
45050;BME280;61798;48.048;-1.928;2022-09-06T09:57:46;100566.63;;;17.61;92.90
45050;BME280;61798;48.048;-1.928;2022-09-06T09:59:59;100569.81;;;17.58;92.83
45050;BME280;61798;48.048;-1.928;2022-09-06T10:02:30;100578.06;;;17.63;92.77
45050;BME280;61798;48.048;-1.928;2022-09-06T10:04:43;100575.41;;;17.69;92.37
45050;BME280;61798;48.048;-1.928;2022-09-06T10:06:50;100575.56;;;17.62;92.49
45050;BME280;61798;48.048;-1.928;2022-09-06T10:08:56;100572.72;;;17.69;92.85
45050;BME280;61798;48.048;-1.928;2022-09-06T10:11:02;100575.63;;;17.79;89.68
45050;BME280;61798;48.048;-1.928;2022-09-06T10:13:20;100599.59;;;17.88;89.22
45050;BME280;61798;48.048;-1.928;2022-09-06T10:15:40;100590.16;;;17.90;92.03
45050;BME280;61798;48.048;-1.928;2022-09-06T10:17:49;100597.09;;;17.98;90.68
45050;BME280;61798;48.048;-1.928;2022-09-06T10:19:59;100601.53;;;18.04;91.51
45050;BME280;61798;48.048;-1.928;2022-09-06T10:22:18;100581.97;;;18.02;91.63
45050;BME280;61798;48.048;-1.928;2022-09-06T10:27:07;100567.66;;;17.90;91.49
45050;BME280;61798;48.048;-1.928;2022-09-06T10:29:20;100556.00;;;18.24;90.23
45050;BME280;61798;48.048;-1.928;2022-09-06T10:46:39;100550.00;;;18.56;90.61
45050;BME280;61798;48.048;-1.928;2022-09-06T10:48:48;100545.81;;;18.66;90.21
45050;BME280;61798;48.048;-1.928;2022-09-06T10:51:03;100554.97;;;18.82;89.16
45050;BME280;61798;48.048;-1.928;2022-09-06T10:54:19;100561.22;;;19.05;88.84
45050;BME280;61798;48.048;-1.928;2022-09-06T10:56:19;100553.53;;;19.42;89.90
45050;BME280;61798;48.048;-1.928;2022-09-06T10:58:32;100554.84;;;19.67;89.14
45050;BME280;61798;48.048;-1.928;2022-09-06T11:00:43;100553.97;;;19.89;88.72
45050;BME280;61798;48.048;-1.928;2022-09-06T11:03:07;100557.03;;;19.65;87.50
45050;BME280;61798;48.048;-1.928;2022-09-06T11:05:34;100550.41;;;19.55;87.45
45050;BME280;61798;48.048;-1.928;2022-09-06T11:07:47;100548.34;;;19.68;87.04
45050;BME280;61798;48.048;-1.928;2022-09-06T11:10:01;100539.84;;;19.59;86.30
45050;BME280;61798;48.048;-1.928;2022-09-06T11:12:36;100548.75;;;19.82;85.00
45050;BME280;61798;48.048;-1.928;2022-09-06T11:14:44;100545.41;;;19.75;85.01
45050;BME280;61798;48.048;-1.928;2022-09-06T11:19:19;100531.28;;;20.06;84.54
45050;BME280;61798;48.048;-1.928;2022-09-06T11:23:52;100514.28;;;20.21;83.94
45050;BME280;61798;48.048;-1.928;2022-09-06T11:26:28;100522.00;;;20.07;83.77
45050;BME280;61798;48.048;-1.928;2022-09-06T11:28:55;100509.59;;;19.83;83.49
45050;BME280;61798;48.048;-1.928;2022-09-06T11:31:03;100514.22;;;19.83;83.34
45050;BME280;61798;48.048;-1.928;2022-09-06T11:35:27;100510.44;;;19.56;83.21
45050;BME280;61798;48.048;-1.928;2022-09-06T11:37:39;100496.63;;;19.58;84.03
45050;BME280;61798;48.048;-1.928;2022-09-06T11:49:26;100506.03;;;18.99;84.83
45050;BME280;61798;48.048;-1.928;2022-09-06T11:51:38;100511.53;;;19.05;84.88
45050;BME280;61798;48.048;-1.928;2022-09-06T11:58:18;100488.03;;;18.93;84.35
45050;BME280;61798;48.048;-1.928;2022-09-06T12:00:25;100487.44;;;19.36;84.68
45050;BME280;61798;48.048;-1.928;2022-09-06T12:07:10;100484.06;;;20.17;83.42
45050;BME280;61798;48.048;-1.928;2022-09-06T12:09:31;100490.25;;;20.13;80.93
45050;BME280;61798;48.048;-1.928;2022-09-06T12:11:43;100488.59;;;19.73;80.13
45050;BME280;61798;48.048;-1.928;2022-09-06T12:13:57;100486.25;;;19.87;80.59
45050;BME280;61798;48.048;-1.928;2022-09-06T12:16:05;100483.53;;;19.87;80.21
45050;BME280;61798;48.048;-1.928;2022-09-06T12:23:01;100485.06;;;19.73;79.21
45050;BME280;61798;48.048;-1.928;2022-09-06T12:27:52;100478.09;;;19.87;82.11
45050;BME280;61798;48.048;-1.928;2022-09-06T12:30:03;100472.44;;;19.94;79.45
45050;BME280;61798;48.048;-1.928;2022-09-06T12:32:10;100489.94;;;20.09;80.53
45050;BME280;61798;48.048;-1.928;2022-09-06T12:34:24;100475.38;;;19.87;80.13
45050;BME280;61798;48.048;-1.928;2022-09-06T12:36:32;100474.59;;;19.92;81.17